TimeCST,TemperatureF,Dew PointF,Humidity,Sea Level PressureIn,VisibilityMPH,Wind Direction,Wind SpeedMPH,Gust SpeedMPH,PrecipitationIn,Events,Conditions,WindDirDegrees,DateUTC
12:52 AM,27.0,24.1,89,30.01,10.0,Calm,Calm,-,N/A,,Clear,0,2013-02-24 06:52:00
1:52 AM,28.0,24.1,85,29.99,10.0,East,5.8,-,N/A,,Clear,90,2013-02-24 07:52:00
2:52 AM,28.9,24.1,82,29.97,10.0,NNE,3.5,-,N/A,,Clear,30,2013-02-24 08:52:00
3:52 AM,27.0,23.0,85,29.96,9.0,East,3.5,-,N/A,,Clear,80,2013-02-24 09:52:00
4:52 AM,26.1,23.0,88,29.95,9.0,ENE,4.6,-,N/A,,Clear,60,2013-02-24 10:52:00
5:52 AM,27.0,23.0,85,29.95,8.0,ENE,3.5,-,N/A,,Clear,70,2013-02-24 11:52:00
6:52 AM,27.0,24.1,89,29.97,8.0,NNE,3.5,-,N/A,,Clear,30,2013-02-24 12:52:00
7:52 AM,30.9,27.0,85,29.98,8.0,ENE,4.6,-,N/A,,Clear,60,2013-02-24 13:52:00
8:52 AM,36.0,28.0,73,30.00,10.0,Calm,Calm,-,N/A,,Clear,0,2013-02-24 14:52:00
9:52 AM,44.1,33.1,65,29.99,10.0,SSE,8.1,-,N/A,,Clear,150,2013-02-24 15:52:00
10:52 AM,48.9,34.0,56,29.97,10.0,SE,13.8,18.4,N/A,,Clear,140,2013-02-24 16:52:00
11:52 AM,52.0,36.0,54,29.95,10.0,SSE,10.4,17.3,N/A,,Clear,160,2013-02-24 17:52:00
12:52 PM,55.9,36.0,47,29.91,10.0,SSE,13.8,-,N/A,,Clear,150,2013-02-24 18:52:00
1:52 PM,57.9,35.1,42,29.87,10.0,SE,12.7,21.9,N/A,,Clear,140,2013-02-24 19:52:00
2:52 PM,59.0,36.0,42,29.83,10.0,ESE,12.7,21.9,N/A,,Clear,120,2013-02-24 20:52:00
3:52 PM,60.1,35.1,39,29.82,10.0,SE,16.1,21.9,N/A,,Clear,130,2013-02-24 21:52:00
4:52 PM,60.1,33.1,36,29.80,10.0,SE,16.1,-,N/A,,Clear,140,2013-02-24 22:52:00
5:52 PM,55.9,34.0,44,29.79,10.0,ESE,11.5,-,N/A,,Clear,110,2013-02-24 23:52:00
6:52 PM,50.0,33.1,52,29.83,10.0,Calm,Calm,-,N/A,,Clear,0,2013-02-25 00:52:00
7:52 PM,44.1,33.1,65,29.85,10.0,ENE,5.8,-,N/A,,Clear,70,2013-02-25 01:52:00
8:52 PM,43.0,35.1,74,29.88,10.0,ENE,3.5,-,N/A,,Clear,70,2013-02-25 02:52:00
9:52 PM,43.0,36.0,76,29.88,10.0,ENE,8.1,-,N/A,,Clear,70,2013-02-25 03:52:00
10:52 PM,37.9,34.0,86,29.88,10.0,NNE,4.6,-,N/A,,Clear,20,2013-02-25 04:52:00
11:52 PM,37.0,33.1,86,29.87,10.0,NE,6.9,-,N/A,,Clear,40,2013-02-25 05:52:00